Time;durP1;ratioP1;P1;durP2;ratioP2;P2;SDS_P1;SDS_P2;PMS_P1;PMS_P2;Temp;Humidity;BMP_temperature;BMP_pressure;BME280_temperature;BME280_humidity;BME280_pressure;Samples;Min_cycle;Max_cycle;Signal;HPM_P1;HPM_P2
2022/07/19 00:02:08;;;;;;;3.70;1.67;;;;;;;11.98;100.00;100652.47;1752729;81;21396;-70
2022/07/19 00:04:35;;;;;;;6.47;1.67;;;;;;;12.00;100.00;100655.46;1752460;81;21015;-70
2022/07/19 00:07:02;;;;;;;10.28;1.80;;;;;;;12.00;100.00;100650.64;1752623;81;21108;-69
2022/07/19 00:09:29;;;;;;;1.67;1.20;;;;;;;12.00;100.00;100649.33;1752384;81;21060;-68
2022/07/19 00:11:56;;;;;;;6.25;1.52;;;;;;;12.00;100.00;100646.22;1752560;81;20994;-70
2022/07/19 00:14:23;;;;;;;3.20;1.32;;;;;;;12.00;100.00;100649.33;1752325;81;21147;-70
2022/07/19 00:16:49;;;;;;;5.10;1.52;;;;;;;12.00;100.00;100651.97;1752696;81;21068;-69
2022/07/19 00:19:16;;;;;;;7.05;1.50;;;;;;;12.00;100.00;100646.69;1754195;81;20989;-69
2022/07/19 00:21:42;;;;;;;1.35;1.22;;;;;;;12.01;100.00;100644.44;1754145;81;21093;-71
2022/07/19 00:24:09;;;;;;;3.70;1.32;;;;;;;12.01;100.00;100647.08;1754201;81;21065;-69
2022/07/19 00:26:35;;;;;;;1.55;1.42;;;;;;;12.03;100.00;100644.81;1754133;81;21192;-70
2022/07/19 00:29:02;;;;;;;4.62;1.62;;;;;;;12.03;100.00;100647.45;1754043;81;21107;-69
2022/07/19 00:31:31;;;;;;;5.00;1.82;;;;;;;12.03;100.00;100646.13;1754225;81;21006;-70
2022/07/19 00:33:58;;;;;;;4.80;1.55;;;;;;;12.03;100.00;100641.29;1753969;81;21073;-69
2022/07/19 00:36:26;;;;;;;1.90;1.50;;;;;;;12.04;100.00;100641.71;1754233;81;21104;-69
2022/07/19 00:38:53;;;;;;;1.90;1.20;;;;;;;12.01;100.00;100645.75;1754009;81;21146;-69
2022/07/19 00:41:19;;;;;;;7.15;1.72;;;;;;;11.97;100.00;100645.02;1754094;81;21195;-69
2022/07/19 00:43:50;;;;;;;2.67;1.67;;;;;;;11.95;100.00;100642.42;1754068;81;21048;-69
2022/07/19 00:46:20;;;;;;;5.65;1.55;;;;;;;11.92;100.00;100639.05;1754200;81;21553;-69
2022/07/19 00:48:49;;;;;;;6.80;2.10;;;;;;;11.86;100.00;100636.56;1754633;81;21548;-70
2022/07/19 00:51:17;;;;;;;4.55;1.80;;;;;;;11.83;100.00;100633.58;1753940;81;21544;-69
2022/07/19 00:53:44;;;;;;;2.20;1.70;;;;;;;11.79;100.00;100638.55;1770265;79;21589;-68
2022/07/19 00:56:14;;;;;;;5.75;2.52;;;;;;;11.76;100.00;100643.48;1801456;79;21518;-70
2022/07/19 00:58:42;;;;;;;5.90;2.08;;;;;;;11.73;100.00;100641.39;1801584;79;21505;-70
2022/07/19 01:01:09;;;;;;;2.35;1.55;;;;;;;11.71;100.00;100637.50;1801986;79;21538;-68
2022/07/19 01:03:39;;;;;;;3.12;1.70;;;;;;;11.69;100.00;100630.55;1751634;81;21957;-69
2022/07/19 01:06:08;;;;;;;2.08;1.37;;;;;;;11.69;100.00;100629.23;1751734;81;21041;-69
2022/07/19 01:08:36;;;;;;;2.65;1.65;;;;;;;11.67;100.00;100626.64;1751527;81;21022;-70
2022/07/19 01:11:06;;;;;;;6.30;2.20;;;;;;;11.67;100.00;100628.42;1751831;81;21533;-70
2022/07/19 01:13:33;;;;;;;2.92;1.57;;;;;;;11.63;100.00;100633.39;1751633;81;21692;-69
2022/07/19 01:15:59;;;;;;;3.12;1.92;;;;;;;11.60;100.00;100626.91;1751404;81;21116;-69
2022/07/19 01:18:27;;;;;;;3.62;2.00;;;;;;;11.57;100.00;100628.30;1751266;81;20990;-70
2022/07/19 01:20:53;;;;;;;5.70;2.08;;;;;;;11.54;100.00;100624.00;1751498;81;21132;-70
2022/07/19 01:23:21;;;;;;;2.90;1.87;;;;;;;11.52;100.00;100622.72;1751281;81;21080;-69
2022/07/19 01:25:48;;;;;;;2.75;1.52;;;;;;;11.47;100.00;100620.70;1751632;81;21053;-71
2022/07/19 01:28:14;;;;;;;5.58;1.92;;;;;;;11.44;100.00;100620.81;1751484;81;21207;-70
2022/07/19 01:30:41;;;;;;;2.95;1.57;;;;;;;11.45;100.00;100627.80;1751505;81;21040;-69
2022/07/19 01:33:08;;;;;;;3.25;1.52;;;;;;;11.44;100.00;100623.45;1751584;81;21021;-69
2022/07/19 01:35:35;;;;;;;5.47;2.00;;;;;;;11.46;100.00;100620.30;1751574;81;21065;-69
2022/07/19 01:38:02;;;;;;;7.15;1.92;;;;;;;11.48;100.00;100621.12;1751471;81;21022;-70
2022/07/19 01:40:29;;;;;;;10.95;3.05;;;;;;;11.45;100.00;100622.52;1751588;81;21151;-69
2022/07/19 01:42:55;;;;;;;18.20;3.62;;;;;;;11.48;100.00;100622.44;1724018;81;21502;-69
2022/07/19 01:45:22;;;;;;;7.55;3.35;;;;;;;11.47;100.00;100618.06;1751588;81;21609;-71
2022/07/19 01:47:49;;;;;;;8.80;3.08;;;;;;;11.53;100.00;100616.55;1751394;81;21498;-70
2022/07/19 01:50:17;;;;;;;7.78;2.95;;;;;;;11.58;100.00;100624.31;1751554;81;21049;-69
2022/07/19 01:52:45;;;;;;;11.53;3.80;;;;;;;11.61;100.00;100620.23;1751701;81;21954;-69
2022/07/19 01:55:12;;;;;;;13.30;3.60;;;;;;;11.64;100.00;100620.59;1731975;81;21097;-69
2022/07/19 01:57:38;;;;;;;5.92;2.47;;;;;;;11.67;100.00;100624.47;1785823;80;21023;-69
2022/07/19 02:00:08;;;;;;;9.40;2.37;;;;;;;11.71;100.00;100624.74;1785702;80;21546;-70
2022/07/19 02:02:37;;;;;;;3.58;2.02;;;;;;;11.73;100.00;100629.08;1785669;79;21062;-70
2022/07/19 02:05:05;;;;;;;7.12;1.92;;;;;;;11.76;100.00;100628.11;1785778;80;21345;-69
2022/07/19 02:07:32;;;;;;;7.47;2.42;;;;;;;11.78;100.00;100626.29;1785833;80;21050;-68
2022/07/19 02:09:58;;;;;;;7.00;2.00;;;;;;;11.81;100.00;100621.36;1786107;80;21039;-69
2022/07/19 02:12:25;;;;;;;5.95;2.30;;;;;;;11.82;100.00;100625.24;1785888;80;21026;-70
2022/07/19 02:14:53;;;;;;;3.25;2.15;;;;;;;11.85;100.00;100629.12;1785938;80;21062;-70
2022/07/19 02:17:21;;;;;;;6.70;2.30;;;;;;;11.90;100.00;100623.71;1783203;79;21870;-71
2022/07/19 02:19:47;;;;;;;7.22;2.62;;;;;;;11.95;100.00;100626.58;1765625;81;21540;-70
2022/07/19 02:22:14;;;;;;;5.10;2.40;;;;;;;11.99;100.00;100629.14;1765797;81;21039;-70
2022/07/19 02:24:42;;;;;;;12.10;3.33;;;;;;;12.04;100.00;100632.47;1765701;81;21056;-70
2022/07/19 02:27:10;;;;;;;7.47;3.27;;;;;;;12.08;100.00;100626.17;1765919;81;21023;-69
2022/07/19 02:29:38;;;;;;;6.42;2.45;;;;;;;12.12;100.00;100633.93;1722995;83;21200;-69
2022/07/19 02:32:06;;;;;;;11.48;4.10;;;;;;;12.17;100.00;100632.45;1733219;82;21774;-69
2022/07/19 02:35:44;;;;;;;8.33;3.20;;;;;;;12.22;100.00;100630.50;1852152;77;22800;-69
2022/07/19 02:38:10;;;;;;;11.45;4.17;;;;;;;12.27;100.00;100631.19;1824185;78;20937;-70
2022/07/19 02:40:37;;;;;;;12.00;4.53;;;;;;;12.37;100.00;100625.11;1824052;78;21370;-70
2022/07/19 02:43:03;;;;;;;14.10;4.80;;;;;;;12.46;100.00;100625.23;1824081;78;21540;-68
2022/07/19 02:45:31;;;;;;;10.45;4.22;;;;;;;12.55;100.00;100624.42;1823950;78;21037;-70
2022/07/19 02:47:58;;;;;;;15.83;4.80;;;;;;;12.63;100.00;100626.80;1823780;78;21095;-69
2022/07/19 02:50:25;;;;;;;11.80;4.22;;;;;;;12.70;100.00;100624.33;1802762;78;21508;-70
2022/07/19 02:52:51;;;;;;;12.78;4.17;;;;;;;12.77;100.00;100619.20;1785296;80;21670;-69
2022/07/19 02:55:19;;;;;;;9.48;3.95;;;;;;;12.85;100.00;100624.66;1785206;80;21005;-70
2022/07/19 02:57:46;;;;;;;11.05;3.70;;;;;;;12.95;100.00;100624.69;1785365;80;21017;-70
2022/07/19 03:00:14;;;;;;;9.35;3.65;;;;;;;13.07;100.00;100626.87;1785185;80;21033;-69
2022/07/19 03:02:40;;;;;;;6.33;2.87;;;;;;;13.15;100.00;100618.62;1785387;80;21536;-69
2022/07/19 03:05:08;;;;;;;5.92;3.08;;;;;;;13.21;100.00;100615.27;1785181;80;21178;-69
2022/07/19 03:07:36;;;;;;;12.28;4.00;;;;;;;13.29;100.00;100618.09;1784991;80;21037;-71
2022/07/19 03:10:04;;;;;;;6.92;3.40;;;;;;;13.36;100.00;100615.60;1784881;80;21001;-69
2022/07/19 03:12:32;;;;;;;8.38;3.70;;;;;;;13.44;100.00;100617.48;1785014;80;21068;-69
2022/07/19 03:14:58;;;;;;;8.73;3.70;;;;;;;13.52;100.00;100614.05;1785243;80;21512;-69
2022/07/19 03:17:26;;;;;;;8.05;2.62;;;;;;;13.58;100.00;100612.48;1784960;80;21124;-70
2022/07/19 03:19:53;;;;;;;9.50;3.33;;;;;;;13.64;100.00;100605.61;1785025;80;21025;-68
2022/07/19 03:22:21;;;;;;;7.50;3.27;;;;;;;13.75;100.00;100611.75;1784733;80;21108;-70
2022/07/19 03:24:48;;;;;;;7.08;3.15;;;;;;;13.79;100.00;100609.85;1784739;80;21319;-71
2022/07/19 03:27:15;;;;;;;7.15;3.30;;;;;;;13.85;100.00;100609.59;1784844;80;20997;-70
2022/07/19 03:29:42;;;;;;;6.30;2.95;;;;;;;13.93;100.00;100608.78;1785090;80;21151;-69
2022/07/19 03:32:09;;;;;;;7.85;3.10;;;;;;;13.99;100.00;100611.17;1785386;80;21059;-69
2022/07/19 03:34:35;;;;;;;5.30;2.77;;;;;;;14.08;100.00;100613.02;1783992;80;21013;-68
2022/07/19 03:37:02;;;;;;;9.55;3.60;;;;;;;14.15;100.00;100610.48;1782554;80;21120;-71
2022/07/19 03:39:28;;;;;;;13.60;5.67;;;;;;;14.23;100.00;100613.67;1782398;80;21033;-70
2022/07/19 03:41:56;;;;;;;9.78;5.22;;;;;;;14.33;100.00;100607.48;1782688;80;22503;-71
2022/07/19 03:44:23;;;;;;;15.90;8.00;;;;;;;14.40;100.00;100608.92;1782248;80;21489;-69
2022/07/19 03:46:50;;;;;;;16.82;7.55;;;;;;;14.47;100.00;100609.92;1782318;80;21224;-70
2022/07/19 03:49:16;;;;;;;13.00;6.28;;;;;;;14.56;100.00;100609.13;1781786;80;21021;-69
2022/07/19 03:51:43;;;;;;;12.58;6.50;;;;;;;14.64;100.00;100613.63;1781890;80;21080;-70
2022/07/19 03:54:11;;;;;;;12.70;5.80;;;;;;;14.77;100.00;100610.80;1765692;80;21548;-69
2022/07/19 03:56:37;;;;;;;14.75;4.70;;;;;;;14.94;100.00;100614.45;1750884;82;22024;-70
2022/07/19 03:59:04;;;;;;;10.53;4.10;;;;;;;15.13;100.00;100617.08;1751292;81;21072;-70
2022/07/19 04:01:31;;;;;;;8.83;4.17;;;;;;;15.26;100.00;100613.75;1751009;82;21006;-70
2022/07/19 04:03:58;;;;;;;13.00;5.83;;;;;;;15.40;100.00;100609.57;1751408;81;21600;-70
2022/07/19 04:06:26;;;;;;;7.90;3.20;;;;;;;15.52;100.00;100608.95;1750971;81;21024;-72
2022/07/19 04:08:53;;;;;;;9.65;3.70;;;;;;;15.63;100.00;100609.27;1751083;81;21028;-69
2022/07/19 04:11:19;;;;;;;10.13;4.40;;;;;;;15.75;100.00;100612.28;1751121;82;21106;-68
2022/07/19 04:13:46;;;;;;;11.68;4.15;;;;;;;15.84;100.00;100609.16;1750889;82;21057;-70
2022/07/19 04:16:13;;;;;;;13.70;5.25;;;;;;;15.87;100.00;100612.97;1750916;81;21096;-69
2022/07/19 04:18:41;;;;;;;15.43;5.35;;;;;;;15.93;99.54;100612.19;1751200;82;21481;-69
2022/07/19 04:21:08;;;;;;;15.60;5.70;;;;;;;16.01;99.52;100606.50;1751081;82;21036;-70
2022/07/19 04:23:35;;;;;;;14.43;5.15;;;;;;;16.09;99.13;100608.75;1750820;81;21018;-71
2022/07/19 04:26:01;;;;;;;8.90;3.17;;;;;;;16.17;99.04;100605.20;1751294;81;21042;-70
2022/07/19 04:28:29;;;;;;;7.83;3.58;;;;;;;16.26;97.90;100603.86;1750932;81;21032;-70
2022/07/19 04:30:56;;;;;;;7.22;3.20;;;;;;;16.34;97.13;100608.31;1750973;81;21078;-70
2022/07/19 04:33:23;;;;;;;8.28;3.08;;;;;;;16.42;96.95;100607.41;1750814;82;21056;-70
2022/07/19 04:35:50;;;;;;;10.58;3.72;;;;;;;16.54;96.50;100609.87;1744669;81;21021;-71
2022/07/19 04:38:16;;;;;;;6.30;3.40;;;;;;;16.65;96.21;100603.98;1743003;82;21049;-70
2022/07/19 04:40:43;;;;;;;7.25;3.35;;;;;;;16.76;95.78;100609.09;1722064;82;21009;-69
2022/07/19 04:43:09;;;;;;;13.32;5.22;;;;;;;16.85;94.79;100609.09;1742787;82;21222;-70
2022/07/19 04:45:36;;;;;;;11.25;3.87;;;;;;;16.96;94.33;100605.38;1742728;82;21024;-71
2022/07/19 04:48:03;;;;;;;9.85;3.37;;;;;;;17.05;93.35;100610.66;1743228;82;21041;-70
2022/07/19 04:50:31;;;;;;;11.28;3.85;;;;;;;17.16;93.08;100612.69;1742984;82;21053;-70
2022/07/19 04:52:58;;;;;;;15.48;4.67;;;;;;;17.29;92.22;100607.05;1743703;80;21624;-70
2022/07/19 04:55:24;;;;;;;10.40;4.55;;;;;;;17.36;91.13;100603.57;1752029;80;21926;-70
2022/07/19 04:57:51;;;;;;;10.60;4.30;;;;;;;17.39;91.06;100600.27;1773508;80;21608;-70
2022/07/19 05:00:18;;;;;;;13.55;4.83;;;;;;;17.46;91.43;100609.22;1773865;80;20989;-71
2022/07/19 05:02:47;;;;;;;9.00;3.37;;;;;;;17.63;90.72;100608.25;1773590;80;21033;-70
2022/07/19 05:05:16;;;;;;;8.73;4.00;;;;;;;17.79;89.70;100596.58;1774048;80;22104;-69
2022/07/19 05:07:44;;;;;;;7.58;3.77;;;;;;;17.98;89.63;100611.02;1773639;80;21309;-71
2022/07/19 05:10:11;;;;;;;10.35;3.17;;;;;;;18.10;89.16;100616.08;1773346;80;21054;-71
2022/07/19 05:12:39;;;;;;;8.70;3.90;;;;;;;18.23;88.74;100615.72;1773369;80;21029;-71
2022/07/19 05:15:07;;;;;;;7.15;3.83;;;;;;;18.40;88.14;100616.48;1773327;80;21053;-69
2022/07/19 05:17:36;;;;;;;7.60;2.80;;;;;;;18.55;86.47;100616.87;1773572;80;20983;-73
2022/07/19 05:20:05;;;;;;;9.45;3.02;;;;;;;18.68;84.08;100612.09;1773516;80;22074;-71
2022/07/19 05:22:32;;;;;;;5.85;2.42;;;;;;;18.76;83.47;100612.48;1773395;80;21049;-71
2022/07/19 05:24:59;;;;;;;5.70;2.60;;;;;;;18.87;82.90;100612.69;1773785;80;21013;-71
2022/07/19 05:27:26;;;;;;;4.10;2.27;;;;;;;19.01;82.22;100611.80;1773677;80;21546;-70
2022/07/19 05:29:53;;;;;;;7.37;2.50;;;;;;;19.19;79.84;100616.42;1773676;80;21081;-69
2022/07/19 05:32:19;;;;;;;4.05;2.33;;;;;;;19.34;78.23;100616.73;1773600;80;21069;-70
2022/07/19 05:34:49;;;;;;;3.72;2.12;;;;;;;19.49;77.98;100614.88;1773534;80;21481;-70
2022/07/19 05:37:15;;;;;;;5.33;2.45;;;;;;;19.69;76.59;100618.44;1773684;80;21073;-71
2022/07/19 05:39:42;;;;;;;6.00;2.27;;;;;;;19.85;75.67;100615.59;1773879;80;21021;-69
2022/07/19 05:42:09;;;;;;;9.00;2.33;;;;;;;19.98;74.52;100611.58;1773977;80;22055;-70
2022/07/19 05:44:36;;;;;;;4.90;2.30;;;;;;;20.07;74.13;100608.76;1773667;80;21133;-69
2022/07/19 05:47:02;;;;;;;6.35;2.60;;;;;;;20.21;74.15;100605.12;1773487;80;21001;-71
2022/07/19 05:49:29;;;;;;;9.00;2.33;;;;;;;20.37;73.75;100613.78;1773454;80;20966;-71
2022/07/19 05:51:56;;;;;;;3.67;1.85;;;;;;;20.64;73.60;100611.01;1773939;80;21540;-70
2022/07/19 05:54:22;;;;;;;4.62;2.30;;;;;;;20.97;72.76;100608.19;1755078;80;21061;-70
2022/07/19 05:56:50;;;;;;;3.75;2.02;;;;;;;21.39;71.16;100611.34;1743116;82;21439;-70
2022/07/19 05:59:20;;;;;;;4.90;2.42;;;;;;;21.76;69.37;100606.78;1742688;82;21521;-71
2022/07/19 06:01:45;;;;;;;6.15;2.22;;;;;;;22.06;68.73;100607.20;1743006;82;20997;-72
2022/07/19 06:04:12;;;;;;;5.40;2.27;;;;;;;22.22;68.31;100605.06;1742719;82;21895;-72
2022/07/19 06:06:40;;;;;;;4.80;2.17;;;;;;;22.30;67.21;100609.35;1742928;82;21130;-70
2022/07/19 06:09:11;;;;;;;5.97;2.17;;;;;;;22.27;66.01;100610.95;1742883;82;21745;-71
2022/07/19 06:11:40;;;;;;;;;;;;;;;22.24;66.82;100612.51;1745539;82;22018;-70
2022/07/19 06:14:08;;;;;;;3.95;1.85;;;;;;;22.16;67.06;100608.22;1742851;82;20180;-71
2022/07/19 06:16:38;;;;;;;6.65;2.00;;;;;;;22.04;67.17;100602.44;1743155;82;21512;-71
2022/07/19 06:19:05;;;;;;;5.03;2.08;;;;;;;21.98;67.43;100607.81;1743037;82;21056;-72
2022/07/19 06:21:33;;;;;;;5.87;2.27;;;;;;;21.93;67.84;100604.63;1742718;82;21143;-70
2022/07/19 06:24:00;;;;;;;5.10;2.33;;;;;;;21.93;68.21;100612.19;1742746;82;21018;-70
2022/07/19 06:26:28;;;;;;;4.15;1.98;;;;;;;21.96;68.03;100614.62;1742959;82;21044;-70
2022/07/19 06:28:55;;;;;;;7.70;2.70;;;;;;;21.94;67.82;100609.02;1742848;82;21053;-71
2022/07/19 06:31:21;;;;;;;5.75;2.20;;;;;;;21.90;68.22;100611.09;1743129;82;21052;-71
2022/07/19 06:33:49;;;;;;;3.90;2.05;;;;;;;21.81;68.53;100615.82;1742893;82;21268;-72
2022/07/19 06:36:17;;;;;;;3.37;2.00;;;;;;;21.75;67.18;100616.28;1742676;82;21494;-69
2022/07/19 06:38:43;;;;;;;6.87;2.40;;;;;;;21.65;66.17;100607.20;1742709;82;20981;-70
2022/07/19 06:41:13;;;;;;;4.03;2.20;;;;;;;21.56;65.73;100610.13;1742964;82;21044;-71
2022/07/19 06:43:40;;;;;;;6.35;2.25;;;;;;;21.46;66.16;100608.59;1742612;82;21116;-73
2022/07/19 06:46:08;;;;;;;7.80;2.40;;;;;;;21.37;66.63;100605.23;1742671;82;21029;-70
2022/07/19 06:48:35;;;;;;;3.85;2.10;;;;;;;21.25;67.43;100608.34;1742571;82;21061;-71
2022/07/19 06:51:02;;;;;;;6.00;2.20;;;;;;;21.22;66.67;100597.02;1742693;82;21052;-70
2022/07/19 06:53:29;;;;;;;5.12;2.35;;;;;;;21.16;66.55;100596.52;1750022;80;21041;-71
2022/07/19 06:55:56;;;;;;;5.72;2.30;;;;;;;21.08;66.90;100598.89;1773724;80;21048;-71
2022/07/19 06:58:23;;;;;;;4.50;2.20;;;;;;;21.00;66.52;100603.94;1773596;80;21148;-72
2022/07/19 07:00:51;;;;;;;6.25;2.47;;;;;;;20.84;66.28;100604.69;1773435;80;21363;-70
2022/07/19 07:03:18;;;;;;;6.22;2.50;;;;;;;20.68;67.94;100603.59;1773779;80;21053;-70
2022/07/19 07:05:45;;;;;;;7.65;2.55;;;;;;;20.54;68.06;100599.20;1773469;80;21408;-71
2022/07/19 07:08:12;;;;;;;4.10;2.40;;;;;;;20.44;68.66;100607.03;1773542;80;21077;-71
2022/07/19 07:10:40;;;;;;;6.55;2.70;;;;;;;20.41;70.76;100609.09;1773472;80;21049;-71
2022/07/19 07:13:07;;;;;;;3.75;2.40;;;;;;;20.39;69.86;100605.66;1773492;80;21064;-72
2022/07/19 07:15:33;;;;;;;6.53;2.50;;;;;;;20.42;70.50;100606.77;1773416;80;21006;-72
2022/07/19 07:17:59;;;;;;;5.78;2.33;;;;;;;20.45;70.12;100605.20;1773494;80;21033;-70
2022/07/19 07:20:26;;;;;;;4.72;2.30;;;;;;;20.42;68.75;100606.28;1773672;80;21486;-70
2022/07/19 07:22:53;;;;;;;4.12;2.33;;;;;;;20.40;70.10;100610.03;1773724;80;21529;-69
2022/07/19 07:25:20;;;;;;;6.17;2.30;;;;;;;20.37;69.92;100615.61;1773666;80;22081;-70
2022/07/19 07:27:47;;;;;;;5.72;2.55;;;;;;;20.39;71.78;100623.05;1773771;80;20986;-70
2022/07/19 07:30:13;;;;;;;12.37;2.83;;;;;;;20.38;73.52;100627.52;1773761;80;21033;-70
2022/07/19 07:32:40;;;;;;;6.65;2.70;;;;;;;20.29;73.31;100627.70;1773699;80;21026;-71
2022/07/19 07:35:07;;;;;;;6.47;2.72;;;;;;;20.23;74.68;100630.80;1774246;80;21879;-70
2022/07/19 07:37:34;;;;;;;4.72;2.55;;;;;;;20.21;74.84;100627.37;1779459;80;21064;-70
2022/07/19 07:40:00;;;;;;;4.15;2.20;;;;;;;20.15;76.32;100625.11;1716437;83;21062;-71
2022/07/19 07:42:27;;;;;;;5.08;2.12;;;;;;;20.12;78.16;100633.36;1787955;80;21005;-70
2022/07/19 07:44:54;;;;;;;5.05;2.62;;;;;;;20.10;76.16;100637.95;1753441;80;21021;-71
2022/07/19 07:47:20;;;;;;;6.92;2.95;;;;;;;20.11;77.62;100635.67;1716960;82;21771;-71
2022/07/19 07:49:47;;;;;;;7.80;3.22;;;;;;;20.08;76.11;100641.20;1787847;80;21527;-71
2022/07/19 07:52:15;;;;;;;5.08;2.47;;;;;;;20.06;75.59;100636.44;1779664;80;21001;-70
2022/07/19 07:54:42;;;;;;;5.22;2.55;;;;;;;20.08;75.06;100642.54;1695539;83;21063;-71
2022/07/19 07:57:09;;;;;;;8.10;2.37;;;;;;;20.11;72.94;100639.67;1757222;81;21068;-71
2022/07/19 07:59:35;;;;;;;3.65;2.05;;;;;;;20.22;72.76;100633.56;1756707;81;21252;-71
2022/07/19 08:02:02;;;;;;;4.97;2.30;;;;;;;20.31;72.61;100632.92;1756817;81;21043;-71
2022/07/19 08:04:29;;;;;;;3.02;2.12;;;;;;;20.41;72.28;100635.35;1749003;82;21033;-71
2022/07/19 08:06:58;;;;;;;10.20;2.33;;;;;;;20.46;71.85;100633.69;1687907;83;21051;-70
2022/07/19 08:09:24;;;;;;;6.45;2.52;;;;;;;20.48;70.66;100635.28;1756907;81;21075;-71
2022/07/19 08:11:51;;;;;;;4.50;2.17;;;;;;;20.41;70.89;100639.36;1748672;82;21560;-72
2022/07/19 08:14:19;;;;;;;6.13;2.33;;;;;;;20.39;71.15;100635.09;1687932;83;21025;-70
2022/07/19 08:16:45;;;;;;;5.08;2.60;;;;;;;20.39;70.35;100636.42;1756823;81;21303;-71
2022/07/19 08:19:12;;;;;;;10.68;2.45;;;;;;;20.32;71.36;100634.66;1785212;80;21009;-72
2022/07/19 08:21:40;;;;;;;6.50;2.35;;;;;;;20.28;71.59;100634.00;1788130;80;21436;-71
2022/07/19 08:24:06;;;;;;;3.67;2.05;;;;;;;20.26;71.58;100638.59;1788398;79;21494;-70
2022/07/19 08:26:33;;;;;;;6.30;2.62;;;;;;;20.25;71.78;100639.57;1787923;79;21041;-71
2022/07/19 08:29:00;;;;;;;5.67;2.77;;;;;;;20.25;71.35;100635.56;1788026;79;21080;-70
2022/07/19 08:31:26;;;;;;;3.87;2.10;;;;;;;20.26;71.86;100634.59;1788484;80;21024;-70
2022/07/19 08:33:53;;;;;;;4.90;2.40;;;;;;;20.26;70.34;100632.40;1787884;80;21084;-71
2022/07/19 08:36:20;;;;;;;6.65;3.22;;;;;;;20.22;70.36;100633.11;1781823;80;21119;-71
2022/07/19 08:38:46;;;;;;;6.55;2.33;;;;;;;20.17;73.59;100639.23;1773704;80;21053;-71
2022/07/19 08:41:14;;;;;;;5.37;2.50;;;;;;;20.04;74.07;100637.05;1773861;80;20986;-69
2022/07/19 08:43:41;;;;;;;5.60;2.60;;;;;;;19.76;79.44;100650.08;1773464;80;21065;-71
2022/07/19 08:46:07;;;;;;;7.28;3.00;;;;;;;19.44;83.47;100643.23;1773558;80;21030;-72
2022/07/19 08:48:35;;;;;;;4.80;2.58;;;;;;;19.21;83.76;100646.52;1773760;80;21854;-71
2022/07/19 08:51:04;;;;;;;4.08;2.30;;;;;;;19.13;87.56;100642.17;1773461;80;21099;-71
2022/07/19 08:53:32;;;;;;;6.67;2.70;;;;;;;19.12;88.77;100639.11;1766143;80;21052;-72
2022/07/19 08:56:00;;;;;;;5.67;2.90;;;;;;;19.18;88.30;100640.06;1742817;82;20978;-72
2022/07/19 08:58:26;;;;;;;3.95;2.37;;;;;;;19.24;88.56;100639.19;1743349;82;21197;-71
2022/07/19 09:00:53;;;;;;;6.90;2.87;;;;;;;19.37;87.89;100633.03;1742790;82;21923;-71
2022/07/19 09:03:20;;;;;;;4.75;2.62;;;;;;;19.50;87.46;100624.10;1742968;82;21569;-71
2022/07/19 09:05:48;;;;;;;4.37;2.52;;;;;;;19.61;87.45;100627.89;1742763;82;21084;-71
2022/07/19 09:08:17;;;;;;;9.08;2.80;;;;;;;19.73;85.32;100624.42;1747252;82;21079;-71
2022/07/19 09:13:33;;;;;;;5.33;2.87;;;;;;;19.85;84.16;100610.25;1742921;82;21122;-72
2022/07/19 09:16:00;;;;;;;4.22;2.62;;;;;;;20.05;85.63;100613.36;1742693;82;21025;-71
2022/07/19 09:18:33;;;;;;;4.70;2.27;;;;;;;20.23;83.99;100609.41;1742763;81;21072;-73
2022/07/19 09:21:02;;;;;;;6.08;2.60;;;;;;;20.38;82.54;100611.47;1742867;82;21054;-72
2022/07/19 09:23:29;;;;;;;5.42;2.70;;;;;;;20.51;80.87;100604.78;1743347;82;21584;-70
2022/07/19 09:26:00;;;;;;;7.97;2.55;;;;;;;20.62;79.30;100601.38;1743005;82;21658;-69
2022/07/19 09:28:32;;;;;;;5.92;2.70;;;;;;;20.64;78.75;100602.98;1743157;82;21010;-73
2022/07/19 09:30:58;;;;;;;8.93;3.00;;;;;;;20.70;80.26;100603.86;1771892;80;21532;-71
2022/07/19 09:33:28;;;;;;;6.70;3.02;;;;;;;20.75;76.02;100599.52;1743005;82;21504;-72
2022/07/19 09:35:58;;;;;;;6.17;2.50;;;;;;;20.73;75.04;100601.47;1743676;81;21088;-72
2022/07/19 09:38:37;;;;;;;5.95;2.60;;;;;;;20.68;73.59;100600.92;1751177;80;22115;-72
2022/07/19 09:41:13;;;;;;;7.05;2.87;;;;;;;20.56;74.49;100599.98;1750634;81;21489;-72
2022/07/19 09:43:58;;;;;;;7.30;2.83;;;;;;;20.56;75.14;100595.09;1751022;81;21634;-71
2022/07/19 09:46:35;;;;;;;4.17;2.35;;;;;;;20.58;74.54;100600.73;1750722;82;21048;-72
2022/07/19 09:49:13;;;;;;;5.08;2.50;;;;;;;20.64;73.76;100598.12;1751082;81;21072;-71
2022/07/19 09:51:43;;;;;;;4.10;2.50;;;;;;;20.65;73.99;100595.80;1750908;81;21149;-71
2022/07/19 09:54:12;;;;;;;9.15;3.20;;;;;;;20.71;74.18;100590.87;1748385;81;21053;-73
2022/07/19 09:56:41;;;;;;;7.55;3.27;;;;;;;20.71;72.41;100593.55;1744538;82;21092;-71
2022/07/19 09:59:08;;;;;;;7.65;2.42;;;;;;;20.74;73.17;100593.31;1744799;81;21032;-72
2022/07/19 10:01:34;;;;;;;7.40;2.72;;;;;;;20.82;72.27;100586.55;1744756;82;21580;-71
2022/07/19 10:04:14;;;;;;;5.62;2.72;;;;;;;20.96;71.72;100581.06;1744602;81;21227;-72
2022/07/19 10:06:42;;;;;;;6.08;2.52;;;;;;;21.08;71.79;100574.80;1736804;82;21572;-72
2022/07/19 10:09:12;;;;;;;6.35;2.67;;;;;;;21.20;70.50;100570.84;1744641;82;21077;-71
2022/07/19 10:11:39;;;;;;;5.12;2.70;;;;;;;21.37;70.79;100569.06;1744821;82;21069;-72
2022/07/19 10:14:06;;;;;;;4.67;2.47;;;;;;;21.57;70.23;100565.77;1744900;82;21041;-71
2022/07/19 10:16:48;;;;;;;7.72;2.60;;;;;;;21.65;68.68;100567.00;1744471;82;21155;-71
2022/07/19 10:19:35;;;;;;;4.05;2.20;;;;;;;21.64;69.82;100567.99;1744687;81;21568;-72
2022/07/19 10:22:02;;;;;;;4.55;2.60;;;;;;;21.55;71.19;100558.33;1744629;82;21053;-72
2022/07/19 10:24:52;;;;;;;4.50;2.40;;;;;;;21.48;70.89;100569.15;1744571;82;21069;-73
2022/07/19 10:27:28;;;;;;;6.13;2.90;;;;;;;21.54;72.45;100571.38;1744899;81;21675;-72
2022/07/19 10:30:15;;;;;;;7.97;2.50;;;;;;;21.74;70.94;100560.48;1744468;82;21229;-72
2022/07/19 10:32:46;;;;;;;5.65;2.40;;;;;;;21.90;69.58;100558.81;1744615;82;21552;-71
2022/07/19 10:35:28;;;;;;;11.93;2.92;;;;;;;22.13;69.68;100563.72;1744467;82;21201;-72
2022/07/19 10:38:06;;;;;;;4.67;2.15;;;;;;;22.30;68.58;100561.06;1748958;81;21060;-72
2022/07/19 10:40:43;;;;;;;4.80;2.10;;;;;;;22.37;67.77;100560.94;1749840;82;21132;-71
2022/07/19 10:43:17;;;;;;;3.95;1.90;;;;;;;22.45;67.67;100559.47;1750260;81;21485;-70
2022/07/19 10:46:04;;;;;;;3.67;1.42;;;;;;;22.57;67.20;100555.81;1749898;82;22072;-71
2022/07/19 10:48:47;;;;;;;3.15;1.30;;;;;;;22.76;66.07;100549.30;1750269;81;21041;-71
2022/07/19 10:51:35;;;;;;;2.12;1.17;;;;;;;23.22;62.80;100532.10;1750135;82;21056;-70
2022/07/19 10:54:07;;;;;;;2.75;1.40;;;;;;;23.83;59.79;100531.92;1767588;80;21040;-71
2022/07/19 10:56:41;;;;;;;1.72;1.10;;;;;;;24.26;59.04;100527.68;1787507;80;21223;-71
2022/07/19 10:59:12;;;;;;;1.82;1.10;;;;;;;24.78;57.05;100528.94;1784894;80;21513;-71
2022/07/19 11:02:00;;;;;;;1.10;0.93;;;;;;;25.19;53.56;100524.34;1787705;79;20973;-71
2022/07/19 11:04:34;;;;;;;2.52;1.10;;;;;;;25.49;52.76;100522.45;1787960;79;21067;-72
2022/07/19 11:07:14;;;;;;;1.57;1.00;;;;;;;25.94;51.92;100528.58;1787781;80;21035;-71
2022/07/19 11:09:51;;;;;;;5.07;1.00;;;;;;;26.40;50.11;100518.73;1787921;80;21608;-73
2022/07/19 11:12:34;;;;;;;1.92;1.10;;;;;;;26.50;49.85;100519.55;1787078;80;21060;-71
2022/07/19 11:15:05;;;;;;;5.22;1.00;;;;;;;26.37;50.50;100524.44;1787825;79;21056;-71
2022/07/19 11:17:31;;;;;;;;;;;;;;;26.11;51.03;100522.42;1790028;79;21509;-72
2022/07/19 11:20:06;;;;;;;2.58;1.22;;;;;;;26.10;51.06;100515.31;1788190;80;20203;-73
2022/07/19 11:22:37;;;;;;;2.72;1.10;;;;;;;26.29;50.82;100518.92;1787980;80;21964;-71
2022/07/19 11:25:04;;;;;;;;;;;;;;;26.11;50.21;100508.06;1790610;79;21067;-71
2022/07/19 11:27:32;;;;;;;1.80;1.32;;;;;;;26.01;51.37;100513.50;1788011;80;20519;-71
2022/07/19 11:30:02;;;;;;;3.42;1.40;;;;;;;26.10;51.52;100510.42;1788032;79;21064;-70
2022/07/19 11:32:30;;;;;;;2.42;1.40;;;;;;;26.15;51.19;100502.21;1787692;80;21577;-71